Back to dashboard

Austin Weather News & Live Monitor

Live monitor data for Austin with Wunderground, NOAA, and AviationWeather sources, plus recent weather news headlines tied to this city.

Weather snapshot (America/New_York): 2026-05-09 06:46:09
News snapshot (America/New_York): 2026-05-09 05:50:00
Timezone: America/Chicago
WU High Actual
73°F
WU High Today
73°F
WU High Forecast
90°F
NOAA Latest Temp
63°F
Aviation Latest Temp
73°F

NOAA24

Date/Time (L) Temp (F) Dew Point (F) Relative Humidity (%) Wind Direction Wind Speed (mph) Visibility (miles) Weather
May 1, 4:25 am 63°F 61°F 94 NE 13 4.00 Hvy rain, Mist
May 1, 4:20 am 63°F 61°F 94 NE 16G22 4.00 Hvy rain, Mist
May 1, 4:15 am 63°F 61°F 94 NNE 14 4.00 Hvy rain, Mist
May 1, 4:10 am 63°F 61°F 94 NNE 13 5.00 Hvy rain, Mist
May 1, 4:05 am 63°F 61°F 94 NNE 12 5.00 Rain, Mist
May 1, 4:00 am 63°F 61°F 94 NNE 12 5.00 Rain, Mist
May 1, 3:55 am 63°F 61°F 94 N 10 5.00 Rain, Mist
May 1, 3:53 am 63°F 61°F 93 N 9 6.00 Rain, Mist
May 1, 3:50 am 63°F 61°F 94 N 12 6.00 Mist
May 1, 3:45 am 63°F 61°F 94 N 12 5.00 Mist
May 1, 3:40 am 63°F 61°F 94 N 12 5.00 Mist
May 1, 3:35 am 63°F 61°F 94 NNE 13 5.00 Mist
May 1, 3:30 am 63°F 61°F 94 NE 14 5.00 Mist
May 1, 3:25 am 63°F 61°F 94 NNE 14 5.00 Mist
May 1, 3:20 am 63°F 61°F 94 NNE 7 4.00 Mist
May 1, 3:15 am 63°F 61°F 94 NE 6 4.00 Mist
May 1, 3:10 am 63°F 63°F 100 NNE 8 3.50 Mist
May 1, 3:05 am 63°F 61°F 94 N 13 3.50 Mist
May 1, 3:00 am 63°F 61°F 94 N 20 4.00 Mist
May 1, 2:55 am 63°F 61°F 94 N 17 5.00 Mist
May 1, 2:53 am 63°F 62°F 97 N 16 6.00 Mist
May 1, 2:50 am 63°F 63°F 100 NNE 17 7.00
May 1, 2:45 am 63°F 63°F 100 NNE 15 9.00 Lt rain
May 1, 2:40 am 63°F 61°F 94 NNE 12 10.00 Lt rain
May 1, 2:35 am 63°F 63°F 100 NNE 10 10.00 Lt rain
May 1, 2:33 am 63°F 62°F 97 N 9 10.00 Lt thunder shwr
May 1, 2:30 am 63°F 63°F 100 N 12 10.00
May 1, 2:25 am 63°F 63°F 100 N 13 10.00
May 1, 2:20 am 64°F 63°F 94 NNE 15 10.00
May 1, 2:19 am 64°F 62°F 93 NNE 14 10.00
May 1, 2:15 am 64°F 63°F 94 NNE 12 10.00
May 1, 2:10 am 64°F 63°F 94 NNE 12 10.00 Lt rain
May 1, 2:05 am 64°F 63°F 94 NNE 10 10.00 Lt rain
May 1, 2:00 am 64°F 63°F 94 NE 12 9.00 Lt rain
May 1, 1:55 am 64°F 63°F 94 NE 14 8.00 Lt rain
May 1, 1:53 am 64°F 62°F 93 ENE 13 8.00 Lt thunder shwr
May 1, 1:50 am 64°F 63°F 94 ENE 12 8.00 Lt rain
May 1, 1:45 am 64°F 63°F 94 ENE 13 8.00 Lt rain
May 1, 1:40 am 64°F 63°F 94 ENE 13 8.00 Rain
May 1, 1:35 am 64°F 61°F 88 E 13 8.00 Rain
May 1, 1:32 am 64°F 61°F 90 ENE 10G23 8.00 Thunder shwr
May 1, 1:30 am 64°F 61°F 88 NE 12G17 8.00 Rain
May 1, 1:25 am 64°F 61°F 88 ENE 15 10.00 Lt rain
May 1, 1:20 am 64°F 61°F 88 NE 18 10.00 Lt rain
May 1, 1:15 am 64°F 61°F 88 NE 15 10.00 Lt rain
May 1, 1:10 am 64°F 63°F 94 NE 16 10.00
May 1, 1:05 am 64°F 63°F 94 NE 14 10.00
May 1, 1:00 am 64°F 63°F 94 NE 17 10.00

AviationWeather

Time Temp (F) Dew (F) RH Wind Weather Clouds Vis
2026-05-09 10:00:00Z 73°F 72°F 0 BR BKN300 OVC1400 2
2026-05-09 09:21:00Z 73°F 72°F 0 BR OVC300 2.5
2026-05-09 09:00:00Z 73°F 72°F 40 -RA BR OVC300 1.5
2026-05-09 08:22:00Z 73°F 72°F 40 BR OVC300 2
2026-05-09 08:00:00Z 73°F 71.1°F 80 BR OVC400 5
2026-05-09 07:00:00Z 73°F 71.1°F 150 BR OVC500 6
2026-05-09 06:00:00Z 72°F 71.1°F 150 BR BKN500 OVC1200 6
2026-05-09 05:00:00Z 69.1°F 68°F 160 BR SCT2100 SCT25000 6
2026-05-09 04:00:00Z 71.1°F 70°F 0 BKN2800 9
2026-05-09 03:00:00Z 73°F 69.1°F 170 BKN1900 BKN6000 10+
2026-05-09 02:37:00Z 73.9°F 69.1°F 0 BKN1800 BKN6000 10+
2026-05-09 02:00:00Z 75.9°F 70°F 120 FEW3500 BKN6000 OVC25000 10+
2026-05-09 01:00:00Z 77°F 69.1°F 130 FEW3500 BKN6000 BKN25000 10+
2026-05-09 00:00:00Z 78.1°F 69.1°F 160 FEW2600 SCT3500 OVC6000 10+
2026-05-08 23:00:00Z 80.1°F 69.1°F 180 BKN2900 BKN5500 OVC25000 10+
2026-05-08 22:00:00Z 81°F 69.1°F 120 BKN2800 BKN5500 OVC25000 10+
2026-05-08 21:00:00Z 79°F 68°F 170 SCT3500 BKN6000 OVC25000 10+
2026-05-08 20:13:00Z 78.1°F 68°F 130 SCT4000 BKN6000 OVC25000 10+
2026-05-08 20:00:00Z 79°F 66.9°F 130 BKN4100 BKN5500 10+
2026-05-08 19:00:00Z 75.9°F 64.9°F 80 FEW2500 OVC4000 10+
2026-05-08 18:00:00Z 73.9°F 64°F 70 FEW2300 OVC4400 10+
2026-05-08 17:00:00Z 73.9°F 63°F VRB BKN4700 OVC20000 10+
2026-05-08 16:00:00Z 70°F 61°F 0 FEW1300 SCT2700 OVC5000 10+
2026-05-08 15:00:00Z 66.9°F 59°F 120 SCT1300 OVC2700 10+
2026-05-08 14:00:00Z 64.9°F 57°F 60 OVC1500 10+
2026-05-08 13:00:00Z 64°F 57°F 360 OVC1600 10+
2026-05-08 12:00:00Z 64°F 55.9°F 10 OVC1800 10+
2026-05-08 11:00:00Z 64°F 55°F 20 OVC1900 10+

Latest Austin Weather News